Schley, Wisconsin
Current Conditions -  °F | °C
As of 12:15 PM on Wednesday 28 Jan 2015 (Local Time) from KRRL Reporting Station
Clear Clear  
Wind Chill: 21°   Ceiling: Unl
Heat Index: 29°   Visibility: 10mi
Dew Point: 21°   Wind: 9mph
Humidity: 71%   Direction: 180°S
Pressure: 30.03"   Gusts: NA
Location:  45.2167°N, 89.8732°W
Report Text: KRRL 281815Z AUTO 18008KT 10SM CLR M01/M06 A3003 RMK AO2 T10141060
Loading
Personal Weather Stations






























Interactive Weather Map New forecast layout! Learn more

10-Day Weather Forecast

Advertisements
Track Severe Weather on mobile